sensor_id;sensor_type;location;lat;lon;timestamp;temperature;humidity
30186;DHT22;31152;49.190;8.122;2023-05-10T00:02:07;13.60;99.90
30186;DHT22;31152;49.190;8.122;2023-05-10T00:04:34;13.60;99.90
30186;DHT22;31152;49.190;8.122;2023-05-10T00:07:00;13.60;99.90
30186;DHT22;31152;49.190;8.122;2023-05-10T00:09:27;13.60;99.90
30186;DHT22;31152;49.190;8.122;2023-05-10T00:11:54;13.50;99.90
30186;DHT22;31152;49.190;8.122;2023-05-10T00:14:21;13.50;99.90
30186;DHT22;31152;49.190;8.122;2023-05-10T00:16:47;13.60;99.90
30186;DHT22;31152;49.190;8.122;2023-05-10T00:19:14;13.60;99.90
30186;DHT22;31152;49.190;8.122;2023-05-10T00:21:41;13.50;99.90
30186;DHT22;31152;49.190;8.122;2023-05-10T00:24:08;13.50;99.90
30186;DHT22;31152;49.190;8.122;2023-05-10T00:26:34;13.50;99.90
30186;DHT22;31152;49.190;8.122;2023-05-10T00:29:01;13.50;99.90
30186;DHT22;31152;49.190;8.122;2023-05-10T00:31:28;13.50;99.90
30186;DHT22;31152;49.190;8.122;2023-05-10T00:33:55;13.50;99.90
30186;DHT22;31152;49.190;8.122;2023-05-10T00:36:22;13.50;99.90
30186;DHT22;31152;49.190;8.122;2023-05-10T00:38:49;13.50;99.90
30186;DHT22;31152;49.190;8.122;2023-05-10T00:41:18;13.50;99.90
30186;DHT22;31152;49.190;8.122;2023-05-10T00:43:47;13.50;99.90
30186;DHT22;31152;49.190;8.122;2023-05-10T00:46:15;13.50;99.90
30186;DHT22;31152;49.190;8.122;2023-05-10T00:48:43;13.50;99.90
30186;DHT22;31152;49.190;8.122;2023-05-10T00:51:10;13.50;99.90
30186;DHT22;31152;49.190;8.122;2023-05-10T00:53:37;13.60;99.90
30186;DHT22;31152;49.190;8.122;2023-05-10T00:56:04;13.60;99.90
30186;DHT22;31152;49.190;8.122;2023-05-10T00:58:31;13.60;99.90
30186;DHT22;31152;49.190;8.122;2023-05-10T01:01:01;13.60;99.90
30186;DHT22;31152;49.190;8.122;2023-05-10T01:03:31;13.60;99.90
30186;DHT22;31152;49.190;8.122;2023-05-10T01:06:04;13.60;99.90
30186;DHT22;31152;49.190;8.122;2023-05-10T01:08:33;13.60;99.90
30186;DHT22;31152;49.190;8.122;2023-05-10T01:11:03;13.60;99.90
30186;DHT22;31152;49.190;8.122;2023-05-10T01:13:37;13.60;99.90
30186;DHT22;31152;49.190;8.122;2023-05-10T01:16:07;13.60;99.90
30186;DHT22;31152;49.190;8.122;2023-05-10T01:18:38;13.60;99.90
30186;DHT22;31152;49.190;8.122;2023-05-10T01:27:16;13.50;99.90
30186;DHT22;31152;49.190;8.122;2023-05-10T01:35:33;13.50;99.90
30186;DHT22;31152;49.190;8.122;2023-05-10T01:43:28;13.50;99.90
30186;DHT22;31152;49.190;8.122;2023-05-10T01:46:10;13.50;99.90
30186;DHT22;31152;49.190;8.122;2023-05-10T01:48:47;13.50;99.90
30186;DHT22;31152;49.190;8.122;2023-05-10T01:51:23;13.50;99.90
30186;DHT22;31152;49.190;8.122;2023-05-10T01:53:58;13.60;99.90
30186;DHT22;31152;49.190;8.122;2023-05-10T01:56:29;13.50;99.90
30186;DHT22;31152;49.190;8.122;2023-05-10T01:58:57;13.50;99.90
30186;DHT22;31152;49.190;8.122;2023-05-10T02:01:25;13.50;99.90
30186;DHT22;31152;49.190;8.122;2023-05-10T02:03:54;13.50;99.90
30186;DHT22;31152;49.190;8.122;2023-05-10T02:06:22;13.50;99.90
30186;DHT22;31152;49.190;8.122;2023-05-10T02:08:50;13.40;99.90
30186;DHT22;31152;49.190;8.122;2023-05-10T02:11:19;13.40;99.90
30186;DHT22;31152;49.190;8.122;2023-05-10T02:13:49;13.40;99.90
30186;DHT22;31152;49.190;8.122;2023-05-10T02:16:17;13.40;99.90
30186;DHT22;31152;49.190;8.122;2023-05-10T02:18:45;13.40;99.90
30186;DHT22;31152;49.190;8.122;2023-05-10T02:21:13;13.40;99.90
30186;DHT22;31152;49.190;8.122;2023-05-10T02:23:42;13.40;99.90
30186;DHT22;31152;49.190;8.122;2023-05-10T02:26:10;13.30;99.90
30186;DHT22;31152;49.190;8.122;2023-05-10T02:28:40;13.30;99.90
30186;DHT22;31152;49.190;8.122;2023-05-10T02:31:09;13.30;99.90
30186;DHT22;31152;49.190;8.122;2023-05-10T02:33:38;13.30;99.90
30186;DHT22;31152;49.190;8.122;2023-05-10T02:36:07;13.30;99.90
30186;DHT22;31152;49.190;8.122;2023-05-10T02:38:36;13.30;99.90
30186;DHT22;31152;49.190;8.122;2023-05-10T02:41:03;13.30;99.90
30186;DHT22;31152;49.190;8.122;2023-05-10T02:43:33;13.30;99.90
30186;DHT22;31152;49.190;8.122;2023-05-10T02:46:02;13.30;99.90
30186;DHT22;31152;49.190;8.122;2023-05-10T02:48:31;13.30;99.90
30186;DHT22;31152;49.190;8.122;2023-05-10T02:51:05;13.30;99.90
30186;DHT22;31152;49.190;8.122;2023-05-10T02:53:35;13.30;99.90
30186;DHT22;31152;49.190;8.122;2023-05-10T02:56:05;13.30;99.90
30186;DHT22;31152;49.190;8.122;2023-05-10T02:58:34;13.30;99.90
30186;DHT22;31152;49.190;8.122;2023-05-10T03:01:00;13.30;99.90
30186;DHT22;31152;49.190;8.122;2023-05-10T03:03:27;13.30;99.90
30186;DHT22;31152;49.190;8.122;2023-05-10T03:05:54;13.30;99.90
30186;DHT22;31152;49.190;8.122;2023-05-10T03:08:23;13.40;99.90
30186;DHT22;31152;49.190;8.122;2023-05-10T03:13:48;13.50;99.90
30186;DHT22;31152;49.190;8.122;2023-05-10T03:16:18;13.50;99.90
30186;DHT22;31152;49.190;8.122;2023-05-10T03:19:06;13.40;99.90
30186;DHT22;31152;49.190;8.122;2023-05-10T03:21:37;13.50;99.90
30186;DHT22;31152;49.190;8.122;2023-05-10T03:24:08;13.40;99.90
30186;DHT22;31152;49.190;8.122;2023-05-10T03:26:40;13.40;99.90
30186;DHT22;31152;49.190;8.122;2023-05-10T03:29:11;13.40;99.90
30186;DHT22;31152;49.190;8.122;2023-05-10T03:31:38;13.40;99.90
30186;DHT22;31152;49.190;8.122;2023-05-10T03:34:05;13.40;99.90
30186;DHT22;31152;49.190;8.122;2023-05-10T03:36:33;13.40;99.90
30186;DHT22;31152;49.190;8.122;2023-05-10T03:39:00;13.30;99.90
30186;DHT22;31152;49.190;8.122;2023-05-10T03:41:26;13.30;99.90
30186;DHT22;31152;49.190;8.122;2023-05-10T03:43:55;13.30;99.90
30186;DHT22;31152;49.190;8.122;2023-05-10T03:46:25;13.30;99.90
30186;DHT22;31152;49.190;8.122;2023-05-10T03:48:52;13.30;99.90
30186;DHT22;31152;49.190;8.122;2023-05-10T03:51:18;13.30;99.90
30186;DHT22;31152;49.190;8.122;2023-05-10T03:53:45;13.30;99.90
30186;DHT22;31152;49.190;8.122;2023-05-10T03:56:12;13.20;99.90
30186;DHT22;31152;49.190;8.122;2023-05-10T03:58:41;13.20;99.90
30186;DHT22;31152;49.190;8.122;2023-05-10T04:01:08;13.20;99.90
30186;DHT22;31152;49.190;8.122;2023-05-10T04:03:35;13.20;99.90
30186;DHT22;31152;49.190;8.122;2023-05-10T04:06:05;13.20;99.90
30186;DHT22;31152;49.190;8.122;2023-05-10T04:08:31;13.20;99.90
30186;DHT22;31152;49.190;8.122;2023-05-10T04:11:08;13.20;99.90
30186;DHT22;31152;49.190;8.122;2023-05-10T04:13:35;13.20;99.90
30186;DHT22;31152;49.190;8.122;2023-05-10T04:16:02;13.20;99.90
30186;DHT22;31152;49.190;8.122;2023-05-10T04:18:29;13.20;99.90
30186;DHT22;31152;49.190;8.122;2023-05-10T04:20:56;13.20;99.90
30186;DHT22;31152;49.190;8.122;2023-05-10T04:23:22;13.20;99.90
30186;DHT22;31152;49.190;8.122;2023-05-10T04:25:49;13.20;99.90
30186;DHT22;31152;49.190;8.122;2023-05-10T04:28:16;13.20;99.90
30186;DHT22;31152;49.190;8.122;2023-05-10T04:30:43;13.20;99.90
30186;DHT22;31152;49.190;8.122;2023-05-10T04:33:09;13.20;99.90
30186;DHT22;31152;49.190;8.122;2023-05-10T04:35:36;13.30;99.90
30186;DHT22;31152;49.190;8.122;2023-05-10T04:38:03;13.20;99.90
30186;DHT22;31152;49.190;8.122;2023-05-10T04:40:29;13.20;99.90
30186;DHT22;31152;49.190;8.122;2023-05-10T04:42:56;13.30;99.90
30186;DHT22;31152;49.190;8.122;2023-05-10T04:45:23;13.30;99.90
30186;DHT22;31152;49.190;8.122;2023-05-10T04:47:49;13.30;99.90
30186;DHT22;31152;49.190;8.122;2023-05-10T04:50:16;13.30;99.90
30186;DHT22;31152;49.190;8.122;2023-05-10T04:52:44;13.30;99.90
30186;DHT22;31152;49.190;8.122;2023-05-10T04:55:11;13.40;99.90
30186;DHT22;31152;49.190;8.122;2023-05-10T04:57:38;13.30;99.90
30186;DHT22;31152;49.190;8.122;2023-05-10T05:00:05;13.30;99.90
30186;DHT22;31152;49.190;8.122;2023-05-10T05:02:32;13.30;99.90
30186;DHT22;31152;49.190;8.122;2023-05-10T05:04:58;13.30;99.90
30186;DHT22;31152;49.190;8.122;2023-05-10T05:07:25;13.40;99.90
30186;DHT22;31152;49.190;8.122;2023-05-10T05:09:52;13.40;99.90
30186;DHT22;31152;49.190;8.122;2023-05-10T05:12:21;13.40;99.90
30186;DHT22;31152;49.190;8.122;2023-05-10T05:14:50;13.30;99.90
30186;DHT22;31152;49.190;8.122;2023-05-10T05:17:17;13.30;99.90
30186;DHT22;31152;49.190;8.122;2023-05-10T05:19:43;13.40;99.90
30186;DHT22;31152;49.190;8.122;2023-05-10T05:22:10;13.40;99.90
30186;DHT22;31152;49.190;8.122;2023-05-10T05:24:39;13.40;99.90
30186;DHT22;31152;49.190;8.122;2023-05-10T05:27:06;13.40;99.90
30186;DHT22;31152;49.190;8.122;2023-05-10T05:29:33;13.50;99.90
30186;DHT22;31152;49.190;8.122;2023-05-10T05:32:00;13.50;99.90
30186;DHT22;31152;49.190;8.122;2023-05-10T05:34:27;13.50;99.90
30186;DHT22;31152;49.190;8.122;2023-05-10T05:36:54;13.50;99.90
30186;DHT22;31152;49.190;8.122;2023-05-10T05:39:20;13.50;99.90
30186;DHT22;31152;49.190;8.122;2023-05-10T05:41:52;13.50;99.90
30186;DHT22;31152;49.190;8.122;2023-05-10T05:44:18;13.60;99.90
30186;DHT22;31152;49.190;8.122;2023-05-10T05:46:45;13.60;99.90
30186;DHT22;31152;49.190;8.122;2023-05-10T05:49:14;13.60;99.90
30186;DHT22;31152;49.190;8.122;2023-05-10T05:51:41;13.60;99.90
30186;DHT22;31152;49.190;8.122;2023-05-10T05:54:10;13.60;99.90
30186;DHT22;31152;49.190;8.122;2023-05-10T05:56:37;13.70;99.90
30186;DHT22;31152;49.190;8.122;2023-05-10T05:59:04;13.70;99.90
30186;DHT22;31152;49.190;8.122;2023-05-10T06:01:33;13.70;99.90
30186;DHT22;31152;49.190;8.122;2023-05-10T06:04:02;13.70;99.90
30186;DHT22;31152;49.190;8.122;2023-05-10T06:06:29;13.70;99.90
30186;DHT22;31152;49.190;8.122;2023-05-10T06:08:58;13.70;99.90
30186;DHT22;31152;49.190;8.122;2023-05-10T06:11:25;13.70;99.90
30186;DHT22;31152;49.190;8.122;2023-05-10T06:13:54;13.70;99.90
30186;DHT22;31152;49.190;8.122;2023-05-10T06:16:21;13.80;99.90
30186;DHT22;31152;49.190;8.122;2023-05-10T06:18:50;13.80;99.90
30186;DHT22;31152;49.190;8.122;2023-05-10T06:21:19;13.80;99.90
30186;DHT22;31152;49.190;8.122;2023-05-10T06:23:46;13.80;99.90
30186;DHT22;31152;49.190;8.122;2023-05-10T06:26:12;13.90;99.90
30186;DHT22;31152;49.190;8.122;2023-05-10T06:28:40;13.90;99.90
30186;DHT22;31152;49.190;8.122;2023-05-10T06:31:07;14.00;99.90
30186;DHT22;31152;49.190;8.122;2023-05-10T06:33:34;14.00;99.90
30186;DHT22;31152;49.190;8.122;2023-05-10T06:36:01;14.00;99.90
30186;DHT22;31152;49.190;8.122;2023-05-10T06:38:28;14.00;99.90
30186;DHT22;31152;49.190;8.122;2023-05-10T06:40:54;14.10;99.90
30186;DHT22;31152;49.190;8.122;2023-05-10T06:43:23;14.20;99.90
30186;DHT22;31152;49.190;8.122;2023-05-10T06:45:51;14.30;99.90
30186;DHT22;31152;49.190;8.122;2023-05-10T06:48:20;14.30;99.90
30186;DHT22;31152;49.190;8.122;2023-05-10T06:50:49;14.40;99.90
30186;DHT22;31152;49.190;8.122;2023-05-10T06:53:15;14.40;99.90
30186;DHT22;31152;49.190;8.122;2023-05-10T06:55:42;14.50;99.90
30186;DHT22;31152;49.190;8.122;2023-05-10T06:58:09;14.50;99.90
30186;DHT22;31152;49.190;8.122;2023-05-10T07:00:36;14.60;99.90
30186;DHT22;31152;49.190;8.122;2023-05-10T07:03:06;14.60;99.90
30186;DHT22;31152;49.190;8.122;2023-05-10T07:05:35;14.70;99.90
30186;DHT22;31152;49.190;8.122;2023-05-10T07:08:02;14.80;99.90
30186;DHT22;31152;49.190;8.122;2023-05-10T07:10:29;14.80;99.90
30186;DHT22;31152;49.190;8.122;2023-05-10T07:12:56;14.80;99.90
30186;DHT22;31152;49.190;8.122;2023-05-10T07:15:23;14.90;99.90
30186;DHT22;31152;49.190;8.122;2023-05-10T07:17:49;15.00;99.90
30186;DHT22;31152;49.190;8.122;2023-05-10T07:20:16;15.00;99.90
30186;DHT22;31152;49.190;8.122;2023-05-10T07:22:43;15.00;99.90
30186;DHT22;31152;49.190;8.122;2023-05-10T07:25:10;15.20;99.90
30186;DHT22;31152;49.190;8.122;2023-05-10T07:27:37;15.30;99.90
30186;DHT22;31152;49.190;8.122;2023-05-10T07:30:04;15.40;99.90
30186;DHT22;31152;49.190;8.122;2023-05-10T07:32:31;15.40;99.90
30186;DHT22;31152;49.190;8.122;2023-05-10T07:34:58;15.50;99.90
30186;DHT22;31152;49.190;8.122;2023-05-10T07:37:24;15.40;99.90
30186;DHT22;31152;49.190;8.122;2023-05-10T07:39:51;15.50;99.90
30186;DHT22;31152;49.190;8.122;2023-05-10T07:42:18;15.30;99.90
30186;DHT22;31152;49.190;8.122;2023-05-10T07:44:44;15.30;99.90
30186;DHT22;31152;49.190;8.122;2023-05-10T07:47:11;15.20;99.90
30186;DHT22;31152;49.190;8.122;2023-05-10T07:49:38;15.30;99.90
30186;DHT22;31152;49.190;8.122;2023-05-10T07:52:05;15.40;99.90
30186;DHT22;31152;49.190;8.122;2023-05-10T07:54:31;15.30;99.90
30186;DHT22;31152;49.190;8.122;2023-05-10T07:57:01;15.30;99.90
30186;DHT22;31152;49.190;8.122;2023-05-10T07:59:27;15.20;99.90
30186;DHT22;31152;49.190;8.122;2023-05-10T08:01:54;15.20;99.90
30186;DHT22;31152;49.190;8.122;2023-05-10T08:04:21;15.10;99.90
30186;DHT22;31152;49.190;8.122;2023-05-10T08:06:48;15.00;99.90
30186;DHT22;31152;49.190;8.122;2023-05-10T08:09:15;15.10;99.90
30186;DHT22;31152;49.190;8.122;2023-05-10T08:11:42;15.10;99.90
30186;DHT22;31152;49.190;8.122;2023-05-10T08:14:09;15.10;99.90
30186;DHT22;31152;49.190;8.122;2023-05-10T08:16:36;15.10;99.90
30186;DHT22;31152;49.190;8.122;2023-05-10T08:19:02;15.10;99.90
30186;DHT22;31152;49.190;8.122;2023-05-10T08:21:29;15.10;99.90
30186;DHT22;31152;49.190;8.122;2023-05-10T08:23:57;15.30;99.90
30186;DHT22;31152;49.190;8.122;2023-05-10T08:26:24;15.50;99.90
30186;DHT22;31152;49.190;8.122;2023-05-10T08:28:52;15.50;99.90
30186;DHT22;31152;49.190;8.122;2023-05-10T08:31:19;15.50;99.90
30186;DHT22;31152;49.190;8.122;2023-05-10T08:33:50;15.40;99.90
30186;DHT22;31152;49.190;8.122;2023-05-10T08:36:19;15.40;99.90
30186;DHT22;31152;49.190;8.122;2023-05-10T08:38:51;15.40;99.90
30186;DHT22;31152;49.190;8.122;2023-05-10T08:41:24;15.30;99.90
30186;DHT22;31152;49.190;8.122;2023-05-10T08:43:55;15.20;99.90
30186;DHT22;31152;49.190;8.122;2023-05-10T08:46:22;15.20;99.90
30186;DHT22;31152;49.190;8.122;2023-05-10T08:48:50;15.30;99.90
30186;DHT22;31152;49.190;8.122;2023-05-10T08:51:23;15.50;99.90
30186;DHT22;31152;49.190;8.122;2023-05-10T08:53:53;15.60;99.90
30186;DHT22;31152;49.190;8.122;2023-05-10T08:56:20;15.80;99.90
30186;DHT22;31152;49.190;8.122;2023-05-10T08:58:47;16.00;99.90
30186;DHT22;31152;49.190;8.122;2023-05-10T09:01:16;16.10;99.90
30186;DHT22;31152;49.190;8.122;2023-05-10T09:03:48;16.10;99.90
30186;DHT22;31152;49.190;8.122;2023-05-10T09:06:15;16.10;99.90
30186;DHT22;31152;49.190;8.122;2023-05-10T09:08:44;16.00;99.90
30186;DHT22;31152;49.190;8.122;2023-05-10T09:11:12;16.10;99.90
30186;DHT22;31152;49.190;8.122;2023-05-10T09:13:39;16.10;99.90
30186;DHT22;31152;49.190;8.122;2023-05-10T09:16:09;16.00;99.90
30186;DHT22;31152;49.190;8.122;2023-05-10T09:18:46;15.90;99.90
30186;DHT22;31152;49.190;8.122;2023-05-10T09:21:13;15.90;99.90
30186;DHT22;31152;49.190;8.122;2023-05-10T09:23:43;15.80;99.90
30186;DHT22;31152;49.190;8.122;2023-05-10T09:26:13;15.80;99.90
30186;DHT22;31152;49.190;8.122;2023-05-10T09:28:57;15.70;99.90
30186;DHT22;31152;49.190;8.122;2023-05-10T09:31:24;15.80;99.90
30186;DHT22;31152;49.190;8.122;2023-05-10T09:33:56;15.90;99.90
30186;DHT22;31152;49.190;8.122;2023-05-10T09:36:23;15.90;99.90
30186;DHT22;31152;49.190;8.122;2023-05-10T09:38:51;16.00;99.90
30186;DHT22;31152;49.190;8.122;2023-05-10T09:41:19;16.20;99.90
30186;DHT22;31152;49.190;8.122;2023-05-10T09:43:47;16.10;99.90
30186;DHT22;31152;49.190;8.122;2023-05-10T09:46:15;16.10;99.90
30186;DHT22;31152;49.190;8.122;2023-05-10T09:48:46;16.00;99.90
30186;DHT22;31152;49.190;8.122;2023-05-10T09:53:47;15.60;99.90
30186;DHT22;31152;49.190;8.122;2023-05-10T09:56:33;15.60;99.90
30186;DHT22;31152;49.190;8.122;2023-05-10T09:59:05;15.60;99.90
30186;DHT22;31152;49.190;8.122;2023-05-10T10:01:31;15.50;99.90
30186;DHT22;31152;49.190;8.122;2023-05-10T10:03:58;15.50;99.90
30186;DHT22;31152;49.190;8.122;2023-05-10T10:06:25;15.50;99.90
30186;DHT22;31152;49.190;8.122;2023-05-10T10:08:56;15.60;99.90
30186;DHT22;31152;49.190;8.122;2023-05-10T10:11:23;15.60;99.90
30186;DHT22;31152;49.190;8.122;2023-05-10T10:13:50;15.70;99.90
30186;DHT22;31152;49.190;8.122;2023-05-10T10:16:17;15.80;99.90
30186;DHT22;31152;49.190;8.122;2023-05-10T10:18:44;15.90;99.90
30186;DHT22;31152;49.190;8.122;2023-05-10T10:21:13;16.10;99.90
30186;DHT22;31152;49.190;8.122;2023-05-10T10:23:40;16.30;99.90
30186;DHT22;31152;49.190;8.122;2023-05-10T10:26:07;16.40;99.90
30186;DHT22;31152;49.190;8.122;2023-05-10T10:28:57;16.50;99.90
30186;DHT22;31152;49.190;8.122;2023-05-10T10:31:53;16.50;99.90
30186;DHT22;31152;49.190;8.122;2023-05-10T10:34:29;16.40;99.90
30186;DHT22;31152;49.190;8.122;2023-05-10T10:37:04;16.50;99.90
30186;DHT22;31152;49.190;8.122;2023-05-10T10:39:31;16.40;99.90
30186;DHT22;31152;49.190;8.122;2023-05-10T10:42:00;16.10;99.90
30186;DHT22;31152;49.190;8.122;2023-05-10T10:49:48;15.50;99.90
30186;DHT22;31152;49.190;8.122;2023-05-10T10:52:35;15.40;99.90
30186;DHT22;31152;49.190;8.122;2023-05-10T10:55:19;15.40;99.90
30186;DHT22;31152;49.190;8.122;2023-05-10T10:57:53;15.40;99.90
30186;DHT22;31152;49.190;8.122;2023-05-10T11:00:31;15.40;99.90
30186;DHT22;31152;49.190;8.122;2023-05-10T11:03:11;15.30;99.90
30186;DHT22;31152;49.190;8.122;2023-05-10T11:05:46;15.30;99.90
30186;DHT22;31152;49.190;8.122;2023-05-10T11:08:19;15.30;99.90
30186;DHT22;31152;49.190;8.122;2023-05-10T11:11:02;15.40;99.90
30186;DHT22;31152;49.190;8.122;2023-05-10T11:16:23;15.40;99.90
30186;DHT22;31152;49.190;8.122;2023-05-10T11:19:00;15.50;99.90
30186;DHT22;31152;49.190;8.122;2023-05-10T11:24:35;15.60;99.90
30186;DHT22;31152;49.190;8.122;2023-05-10T11:27:02;15.80;99.90
30186;DHT22;31152;49.190;8.122;2023-05-10T11:29:31;15.90;99.90
30186;DHT22;31152;49.190;8.122;2023-05-10T11:32:05;16.00;99.90
30186;DHT22;31152;49.190;8.122;2023-05-10T11:34:34;16.00;99.90
30186;DHT22;31152;49.190;8.122;2023-05-10T11:37:03;16.20;99.90
30186;DHT22;31152;49.190;8.122;2023-05-10T11:39:31;16.40;99.90
30186;DHT22;31152;49.190;8.122;2023-05-10T11:41:58;16.30;99.90
30186;DHT22;31152;49.190;8.122;2023-05-10T11:44:32;16.40;99.90
30186;DHT22;31152;49.190;8.122;2023-05-10T11:47:00;16.50;99.90
30186;DHT22;31152;49.190;8.122;2023-05-10T11:49:27;16.60;99.90
30186;DHT22;31152;49.190;8.122;2023-05-10T11:52:04;16.80;99.90
30186;DHT22;31152;49.190;8.122;2023-05-10T11:54:31;16.80;99.90
30186;DHT22;31152;49.190;8.122;2023-05-10T11:56:58;16.70;99.90
30186;DHT22;31152;49.190;8.122;2023-05-10T11:59:25;16.90;99.90
30186;DHT22;31152;49.190;8.122;2023-05-10T12:01:52;17.00;99.90
30186;DHT22;31152;49.190;8.122;2023-05-10T12:04:19;16.90;99.90
30186;DHT22;31152;49.190;8.122;2023-05-10T12:06:46;16.70;99.90
30186;DHT22;31152;49.190;8.122;2023-05-10T12:09:16;16.50;99.90
30186;DHT22;31152;49.190;8.122;2023-05-10T12:11:48;16.40;99.90
30186;DHT22;31152;49.190;8.122;2023-05-10T12:14:16;16.60;99.90
30186;DHT22;31152;49.190;8.122;2023-05-10T12:16:43;16.70;99.90
30186;DHT22;31152;49.190;8.122;2023-05-10T12:19:12;16.70;99.90
30186;DHT22;31152;49.190;8.122;2023-05-10T12:21:39;16.70;99.90
30186;DHT22;31152;49.190;8.122;2023-05-10T12:24:07;16.80;99.90
30186;DHT22;31152;49.190;8.122;2023-05-10T12:26:35;16.70;99.90
30186;DHT22;31152;49.190;8.122;2023-05-10T12:29:15;16.60;99.90
30186;DHT22;31152;49.190;8.122;2023-05-10T12:31:57;16.60;99.90
30186;DHT22;31152;49.190;8.122;2023-05-10T12:34:33;16.60;99.90
30186;DHT22;31152;49.190;8.122;2023-05-10T12:37:01;16.80;99.90
30186;DHT22;31152;49.190;8.122;2023-05-10T12:39:44;17.00;99.90
30186;DHT22;31152;49.190;8.122;2023-05-10T12:42:14;17.10;99.90
30186;DHT22;31152;49.190;8.122;2023-05-10T12:44:41;17.20;99.90
30186;DHT22;31152;49.190;8.122;2023-05-10T12:47:10;17.20;99.90
30186;DHT22;31152;49.190;8.122;2023-05-10T12:49:37;17.30;99.90
30186;DHT22;31152;49.190;8.122;2023-05-10T12:52:04;17.20;99.50
30186;DHT22;31152;49.190;8.122;2023-05-10T12:54:30;17.10;99.40
30186;DHT22;31152;49.190;8.122;2023-05-10T12:56:57;17.00;99.90
30186;DHT22;31152;49.190;8.122;2023-05-10T12:59:24;17.10;98.20
30186;DHT22;31152;49.190;8.122;2023-05-10T13:01:51;17.20;98.10
30186;DHT22;31152;49.190;8.122;2023-05-10T13:04:18;17.20;97.20
30186;DHT22;31152;49.190;8.122;2023-05-10T13:06:44;17.20;98.30
30186;DHT22;31152;49.190;8.122;2023-05-10T13:09:11;17.20;97.60
30186;DHT22;31152;49.190;8.122;2023-05-10T13:11:38;17.30;97.30
30186;DHT22;31152;49.190;8.122;2023-05-10T13:14:05;17.30;97.70
30186;DHT22;31152;49.190;8.122;2023-05-10T13:16:32;17.30;98.50
30186;DHT22;31152;49.190;8.122;2023-05-10T13:18:58;17.40;99.20
30186;DHT22;31152;49.190;8.122;2023-05-10T13:21:25;17.40;99.00
30186;DHT22;31152;49.190;8.122;2023-05-10T13:23:53;17.40;98.50
30186;DHT22;31152;49.190;8.122;2023-05-10T13:26:19;17.50;98.90
30186;DHT22;31152;49.190;8.122;2023-05-10T13:28:46;17.60;98.20
30186;DHT22;31152;49.190;8.122;2023-05-10T13:31:15;17.70;98.00
30186;DHT22;31152;49.190;8.122;2023-05-10T13:33:42;17.70;98.00
30186;DHT22;31152;49.190;8.122;2023-05-10T13:36:13;17.70;97.70
30186;DHT22;31152;49.190;8.122;2023-05-10T13:38:40;17.80;96.80
30186;DHT22;31152;49.190;8.122;2023-05-10T13:41:07;17.80;97.70
30186;DHT22;31152;49.190;8.122;2023-05-10T13:43:34;18.00;97.00
30186;DHT22;31152;49.190;8.122;2023-05-10T13:46:02;18.20;95.90
30186;DHT22;31152;49.190;8.122;2023-05-10T13:48:29;18.10;95.90
30186;DHT22;31152;49.190;8.122;2023-05-10T13:50:56;18.10;96.20
30186;DHT22;31152;49.190;8.122;2023-05-10T13:53:23;18.10;95.90
30186;DHT22;31152;49.190;8.122;2023-05-10T13:55:49;18.20;96.10
30186;DHT22;31152;49.190;8.122;2023-05-10T13:58:16;18.20;96.00
30186;DHT22;31152;49.190;8.122;2023-05-10T14:00:45;18.10;95.30
30186;DHT22;31152;49.190;8.122;2023-05-10T14:03:12;17.90;96.50
30186;DHT22;31152;49.190;8.122;2023-05-10T14:05:39;18.00;95.40
30186;DHT22;31152;49.190;8.122;2023-05-10T14:08:06;18.10;95.40
30186;DHT22;31152;49.190;8.122;2023-05-10T14:10:34;18.20;96.00
30186;DHT22;31152;49.190;8.122;2023-05-10T14:13:00;18.20;95.70
30186;DHT22;31152;49.190;8.122;2023-05-10T14:15:27;18.20;95.80
30186;DHT22;31152;49.190;8.122;2023-05-10T14:17:54;18.30;95.40
30186;DHT22;31152;49.190;8.122;2023-05-10T14:20:21;18.40;95.30
30186;DHT22;31152;49.190;8.122;2023-05-10T14:22:48;18.30;95.00
30186;DHT22;31152;49.190;8.122;2023-05-10T14:25:17;18.30;95.40
30186;DHT22;31152;49.190;8.122;2023-05-10T14:27:44;18.50;95.50
30186;DHT22;31152;49.190;8.122;2023-05-10T14:30:12;18.60;94.90
30186;DHT22;31152;49.190;8.122;2023-05-10T14:32:38;18.80;94.60
30186;DHT22;31152;49.190;8.122;2023-05-10T14:35:08;18.80;93.90
30186;DHT22;31152;49.190;8.122;2023-05-10T14:37:38;18.70;93.70
30186;DHT22;31152;49.190;8.122;2023-05-10T14:40:06;18.80;94.50
30186;DHT22;31152;49.190;8.122;2023-05-10T14:42:33;18.80;94.40
30186;DHT22;31152;49.190;8.122;2023-05-10T14:45:00;19.00;95.10
30186;DHT22;31152;49.190;8.122;2023-05-10T14:47:27;19.20;95.20
30186;DHT22;31152;49.190;8.122;2023-05-10T14:49:54;19.20;93.90
30186;DHT22;31152;49.190;8.122;2023-05-10T14:52:20;19.10;93.70
30186;DHT22;31152;49.190;8.122;2023-05-10T14:54:47;18.80;93.60
30186;DHT22;31152;49.190;8.122;2023-05-10T14:57:14;18.70;93.50
30186;DHT22;31152;49.190;8.122;2023-05-10T14:59:41;18.40;93.80
30186;DHT22;31152;49.190;8.122;2023-05-10T15:02:07;18.20;94.50
30186;DHT22;31152;49.190;8.122;2023-05-10T15:04:35;18.10;94.40
30186;DHT22;31152;49.190;8.122;2023-05-10T15:07:02;18.10;94.70
30186;DHT22;31152;49.190;8.122;2023-05-10T15:09:29;18.10;95.40
30186;DHT22;31152;49.190;8.122;2023-05-10T15:11:56;18.20;94.70
30186;DHT22;31152;49.190;8.122;2023-05-10T15:14:23;18.40;95.20
30186;DHT22;31152;49.190;8.122;2023-05-10T15:16:49;18.50;94.60
30186;DHT22;31152;49.190;8.122;2023-05-10T15:19:16;18.50;94.70
30186;DHT22;31152;49.190;8.122;2023-05-10T15:21:43;18.50;94.80
30186;DHT22;31152;49.190;8.122;2023-05-10T15:24:10;18.50;94.10
30186;DHT22;31152;49.190;8.122;2023-05-10T15:26:37;18.30;95.40
30186;DHT22;31152;49.190;8.122;2023-05-10T15:29:04;18.00;95.70
30186;DHT22;31152;49.190;8.122;2023-05-10T15:31:31;18.10;95.40
30186;DHT22;31152;49.190;8.122;2023-05-10T15:33:57;18.20;95.20
30186;DHT22;31152;49.190;8.122;2023-05-10T15:36:25;18.30;95.20
30186;DHT22;31152;49.190;8.122;2023-05-10T15:38:55;18.30;95.40
30186;DHT22;31152;49.190;8.122;2023-05-10T15:41:22;18.20;95.40
30186;DHT22;31152;49.190;8.122;2023-05-10T15:43:50;18.00;95.40
30186;DHT22;31152;49.190;8.122;2023-05-10T15:46:19;18.00;95.60
30186;DHT22;31152;49.190;8.122;2023-05-10T15:48:46;18.00;96.50
30186;DHT22;31152;49.190;8.122;2023-05-10T15:51:12;17.90;95.90
30186;DHT22;31152;49.190;8.122;2023-05-10T15:53:39;17.90;96.40
30186;DHT22;31152;49.190;8.122;2023-05-10T15:56:15;17.90;96.70
30186;DHT22;31152;49.190;8.122;2023-05-10T15:58:44;17.90;96.80
30186;DHT22;31152;49.190;8.122;2023-05-10T16:01:11;17.80;96.80
30186;DHT22;31152;49.190;8.122;2023-05-10T16:03:39;17.80;98.20
30186;DHT22;31152;49.190;8.122;2023-05-10T16:06:06;17.70;98.90
30186;DHT22;31152;49.190;8.122;2023-05-10T16:08:32;17.70;99.20
30186;DHT22;31152;49.190;8.122;2023-05-10T16:11:02;17.80;99.40
30186;DHT22;31152;49.190;8.122;2023-05-10T16:13:29;17.80;98.60